sensor_id;sensor_type;location;lat;lon;timestamp;P1;durP1;ratioP1;P2;durP2;ratioP2
52554;SDS011;38455;52.710;6.502;2023-09-12T00:01:34;53.70;;;33.97;;
52554;SDS011;38455;52.710;6.502;2023-09-12T00:03:59;50.63;;;33.63;;
52554;SDS011;38455;52.710;6.502;2023-09-12T00:06:25;55.17;;;36.20;;
52554;SDS011;38455;52.710;6.502;2023-09-12T00:08:51;53.40;;;35.03;;
52554;SDS011;38455;52.710;6.502;2023-09-12T00:11:17;51.88;;;33.90;;
52554;SDS011;38455;52.710;6.502;2023-09-12T00:13:43;53.70;;;34.85;;
52554;SDS011;38455;52.710;6.502;2023-09-12T00:16:09;53.58;;;36.95;;
52554;SDS011;38455;52.710;6.502;2023-09-12T00:18:36;52.60;;;35.13;;
52554;SDS011;38455;52.710;6.502;2023-09-12T00:21:02;55.75;;;33.78;;
52554;SDS011;38455;52.710;6.502;2023-09-12T00:23:28;52.33;;;34.72;;
52554;SDS011;38455;52.710;6.502;2023-09-12T00:25:53;55.03;;;34.88;;
52554;SDS011;38455;52.710;6.502;2023-09-12T00:28:19;64.15;;;37.45;;
52554;SDS011;38455;52.710;6.502;2023-09-12T00:30:46;64.40;;;38.72;;
52554;SDS011;38455;52.710;6.502;2023-09-12T00:33:11;61.38;;;38.70;;
52554;SDS011;38455;52.710;6.502;2023-09-12T00:35:37;56.75;;;35.70;;
52554;SDS011;38455;52.710;6.502;2023-09-12T00:38:03;62.70;;;39.30;;
52554;SDS011;38455;52.710;6.502;2023-09-12T00:40:29;55.15;;;37.15;;
52554;SDS011;38455;52.710;6.502;2023-09-12T00:42:55;57.83;;;36.75;;
52554;SDS011;38455;52.710;6.502;2023-09-12T00:45:21;58.05;;;37.30;;
52554;SDS011;38455;52.710;6.502;2023-09-12T00:47:47;52.35;;;37.28;;
52554;SDS011;38455;52.710;6.502;2023-09-12T00:50:14;60.15;;;35.92;;
52554;SDS011;38455;52.710;6.502;2023-09-12T00:52:41;69.25;;;41.65;;
52554;SDS011;38455;52.710;6.502;2023-09-12T00:55:08;80.55;;;43.10;;
52554;SDS011;38455;52.710;6.502;2023-09-12T00:57:34;65.35;;;40.80;;
52554;SDS011;38455;52.710;6.502;2023-09-12T01:00:04;66.43;;;41.45;;
52554;SDS011;38455;52.710;6.502;2023-09-12T01:02:43;67.63;;;41.05;;
52554;SDS011;38455;52.710;6.502;2023-09-12T01:05:14;63.30;;;38.47;;
52554;SDS011;38455;52.710;6.502;2023-09-12T01:07:41;79.13;;;41.20;;
52554;SDS011;38455;52.710;6.502;2023-09-12T01:10:08;75.80;;;40.40;;
52554;SDS011;38455;52.710;6.502;2023-09-12T01:12:35;76.95;;;42.08;;
52554;SDS011;38455;52.710;6.502;2023-09-12T01:15:01;68.38;;;38.95;;
52554;SDS011;38455;52.710;6.502;2023-09-12T01:17:27;56.60;;;36.42;;
52554;SDS011;38455;52.710;6.502;2023-09-12T01:19:53;84.88;;;41.40;;
52554;SDS011;38455;52.710;6.502;2023-09-12T01:22:40;77.05;;;42.45;;
52554;SDS011;38455;52.710;6.502;2023-09-12T01:28:23;91.63;;;44.40;;
52554;SDS011;38455;52.710;6.502;2023-09-12T01:30:52;132.13;;;47.22;;
52554;SDS011;38455;52.710;6.502;2023-09-12T01:33:19;72.82;;;40.65;;
52554;SDS011;38455;52.710;6.502;2023-09-12T01:35:45;81.68;;;37.20;;
52554;SDS011;38455;52.710;6.502;2023-09-12T01:38:12;60.03;;;37.22;;
52554;SDS011;38455;52.710;6.502;2023-09-12T01:40:41;71.93;;;40.20;;
52554;SDS011;38455;52.710;6.502;2023-09-12T01:43:07;270.38;;;55.75;;
52554;SDS011;38455;52.710;6.502;2023-09-12T01:45:33;89.65;;;37.40;;
52554;SDS011;38455;52.710;6.502;2023-09-12T01:48:01;239.30;;;42.67;;
52554;SDS011;38455;52.710;6.502;2023-09-12T01:50:29;487.42;;;59.45;;
52554;SDS011;38455;52.710;6.502;2023-09-12T01:52:56;313.92;;;54.47;;
52554;SDS011;38455;52.710;6.502;2023-09-12T01:55:23;131.20;;;46.25;;
52554;SDS011;38455;52.710;6.502;2023-09-12T01:57:50;106.25;;;40.85;;
52554;SDS011;38455;52.710;6.502;2023-09-12T02:00:17;157.90;;;44.15;;
52554;SDS011;38455;52.710;6.502;2023-09-12T02:02:44;151.82;;;44.10;;
52554;SDS011;38455;52.710;6.502;2023-09-12T02:07:44;241.00;;;46.45;;
52554;SDS011;38455;52.710;6.502;2023-09-12T02:10:10;193.23;;;47.40;;
52554;SDS011;38455;52.710;6.502;2023-09-12T02:12:36;103.18;;;43.22;;
52554;SDS011;38455;52.710;6.502;2023-09-12T02:15:02;193.13;;;46.75;;
52554;SDS011;38455;52.710;6.502;2023-09-12T02:17:28;195.65;;;47.75;;
52554;SDS011;38455;52.710;6.502;2023-09-12T02:19:54;126.10;;;41.97;;
52554;SDS011;38455;52.710;6.502;2023-09-12T02:22:20;118.35;;;41.65;;
52554;SDS011;38455;52.710;6.502;2023-09-12T02:24:45;217.75;;;50.90;;
52554;SDS011;38455;52.710;6.502;2023-09-12T02:27:11;72.93;;;39.03;;
52554;SDS011;38455;52.710;6.502;2023-09-12T02:29:40;79.47;;;39.35;;
52554;SDS011;38455;52.710;6.502;2023-09-12T02:32:07;75.47;;;39.67;;
52554;SDS011;38455;52.710;6.502;2023-09-12T02:34:33;70.78;;;38.10;;
52554;SDS011;38455;52.710;6.502;2023-09-12T02:36:58;171.80;;;49.45;;
52554;SDS011;38455;52.710;6.502;2023-09-12T02:39:24;114.70;;;40.00;;
52554;SDS011;38455;52.710;6.502;2023-09-12T02:41:50;133.02;;;46.78;;
52554;SDS011;38455;52.710;6.502;2023-09-12T02:44:16;192.20;;;46.13;;
52554;SDS011;38455;52.710;6.502;2023-09-12T02:46:42;137.70;;;39.35;;
52554;SDS011;38455;52.710;6.502;2023-09-12T02:49:07;206.10;;;51.17;;
52554;SDS011;38455;52.710;6.502;2023-09-12T02:51:33;322.58;;;60.47;;
52554;SDS011;38455;52.710;6.502;2023-09-12T02:53:59;170.48;;;39.92;;
52554;SDS011;38455;52.710;6.502;2023-09-12T02:56:24;133.93;;;41.03;;
52554;SDS011;38455;52.710;6.502;2023-09-12T02:58:50;114.47;;;38.95;;
52554;SDS011;38455;52.710;6.502;2023-09-12T03:01:19;181.80;;;46.20;;
52554;SDS011;38455;52.710;6.502;2023-09-12T03:03:46;152.35;;;43.00;;
52554;SDS011;38455;52.710;6.502;2023-09-12T03:06:12;204.27;;;46.67;;
52554;SDS011;38455;52.710;6.502;2023-09-12T03:08:39;100.68;;;38.65;;
52554;SDS011;38455;52.710;6.502;2023-09-12T03:11:05;326.58;;;57.08;;
52554;SDS011;38455;52.710;6.502;2023-09-12T03:13:32;74.82;;;35.50;;
52554;SDS011;38455;52.710;6.502;2023-09-12T03:15:59;154.25;;;42.45;;
52554;SDS011;38455;52.710;6.502;2023-09-12T03:18:25;145.25;;;44.70;;
52554;SDS011;38455;52.710;6.502;2023-09-12T03:20:50;86.85;;;37.10;;
52554;SDS011;38455;52.710;6.502;2023-09-12T03:23:16;88.22;;;39.00;;
52554;SDS011;38455;52.710;6.502;2023-09-12T03:25:42;82.68;;;36.30;;
52554;SDS011;38455;52.710;6.502;2023-09-12T03:28:08;106.88;;;40.03;;
52554;SDS011;38455;52.710;6.502;2023-09-12T03:30:34;74.80;;;36.47;;
52554;SDS011;38455;52.710;6.502;2023-09-12T03:33:01;101.88;;;40.50;;
52554;SDS011;38455;52.710;6.502;2023-09-12T03:35:31;113.80;;;38.78;;
52554;SDS011;38455;52.710;6.502;2023-09-12T03:37:58;112.68;;;36.85;;
52554;SDS011;38455;52.710;6.502;2023-09-12T03:40:23;120.93;;;37.00;;
52554;SDS011;38455;52.710;6.502;2023-09-12T03:42:49;85.72;;;36.22;;
52554;SDS011;38455;52.710;6.502;2023-09-12T03:45:15;72.85;;;35.35;;
52554;SDS011;38455;52.710;6.502;2023-09-12T03:47:41;240.38;;;51.53;;
52554;SDS011;38455;52.710;6.502;2023-09-12T03:50:07;90.05;;;38.38;;
52554;SDS011;38455;52.710;6.502;2023-09-12T03:52:33;105.85;;;38.72;;
52554;SDS011;38455;52.710;6.502;2023-09-12T03:54:59;80.18;;;32.30;;
52554;SDS011;38455;52.710;6.502;2023-09-12T03:57:26;67.22;;;33.35;;
52554;SDS011;38455;52.710;6.502;2023-09-12T03:59:51;109.78;;;38.25;;
52554;SDS011;38455;52.710;6.502;2023-09-12T04:02:18;75.38;;;33.28;;
52554;SDS011;38455;52.710;6.502;2023-09-12T04:04:43;81.75;;;34.75;;
52554;SDS011;38455;52.710;6.502;2023-09-12T04:07:09;87.60;;;35.38;;
52554;SDS011;38455;52.710;6.502;2023-09-12T04:09:35;261.45;;;52.58;;
52554;SDS011;38455;52.710;6.502;2023-09-12T04:12:00;182.10;;;43.40;;
52554;SDS011;38455;52.710;6.502;2023-09-12T04:14:26;238.13;;;46.88;;
52554;SDS011;38455;52.710;6.502;2023-09-12T04:16:52;91.10;;;37.08;;
52554;SDS011;38455;52.710;6.502;2023-09-12T04:19:18;84.78;;;35.08;;
52554;SDS011;38455;52.710;6.502;2023-09-12T04:21:43;92.65;;;37.58;;
52554;SDS011;38455;52.710;6.502;2023-09-12T04:24:09;89.35;;;36.08;;
52554;SDS011;38455;52.710;6.502;2023-09-12T04:26:36;82.45;;;35.05;;
52554;SDS011;38455;52.710;6.502;2023-09-12T04:29:01;120.75;;;39.35;;
52554;SDS011;38455;52.710;6.502;2023-09-12T04:31:27;146.73;;;41.75;;
52554;SDS011;38455;52.710;6.502;2023-09-12T04:33:53;157.40;;;44.13;;
52554;SDS011;38455;52.710;6.502;2023-09-12T04:36:19;192.52;;;45.72;;
52554;SDS011;38455;52.710;6.502;2023-09-12T04:38:45;105.03;;;41.00;;
52554;SDS011;38455;52.710;6.502;2023-09-12T04:41:11;99.93;;;37.67;;
52554;SDS011;38455;52.710;6.502;2023-09-12T04:43:42;224.18;;;45.00;;
52554;SDS011;38455;52.710;6.502;2023-09-12T04:46:09;153.88;;;43.28;;
52554;SDS011;38455;52.710;6.502;2023-09-12T04:48:35;66.65;;;35.55;;
52554;SDS011;38455;52.710;6.502;2023-09-12T04:51:01;89.60;;;37.72;;
52554;SDS011;38455;52.710;6.502;2023-09-12T04:53:26;58.83;;;33.63;;
52554;SDS011;38455;52.710;6.502;2023-09-12T04:55:58;67.93;;;36.30;;
52554;SDS011;38455;52.710;6.502;2023-09-12T04:58:24;88.15;;;36.97;;
52554;SDS011;38455;52.710;6.502;2023-09-12T05:00:50;105.70;;;41.25;;
52554;SDS011;38455;52.710;6.502;2023-09-12T05:03:15;64.03;;;37.08;;
52554;SDS011;38455;52.710;6.502;2023-09-12T05:05:41;73.43;;;34.80;;
52554;SDS011;38455;52.710;6.502;2023-09-12T05:08:10;65.07;;;35.88;;
52554;SDS011;38455;52.710;6.502;2023-09-12T05:10:35;74.07;;;36.60;;
52554;SDS011;38455;52.710;6.502;2023-09-12T05:13:03;77.32;;;35.42;;
52554;SDS011;38455;52.710;6.502;2023-09-12T05:15:29;67.25;;;37.40;;
52554;SDS011;38455;52.710;6.502;2023-09-12T05:17:55;84.68;;;38.25;;
52554;SDS011;38455;52.710;6.502;2023-09-12T05:20:20;69.95;;;37.38;;
52554;SDS011;38455;52.710;6.502;2023-09-12T05:22:46;65.90;;;36.55;;
52554;SDS011;38455;52.710;6.502;2023-09-12T05:25:12;85.13;;;40.67;;
52554;SDS011;38455;52.710;6.502;2023-09-12T05:27:37;86.43;;;40.53;;
52554;SDS011;38455;52.710;6.502;2023-09-12T05:30:03;92.80;;;41.55;;
52554;SDS011;38455;52.710;6.502;2023-09-12T05:32:29;173.23;;;49.90;;
52554;SDS011;38455;52.710;6.502;2023-09-12T05:34:56;169.75;;;53.05;;
52554;SDS011;38455;52.710;6.502;2023-09-12T05:37:21;111.40;;;45.80;;
52554;SDS011;38455;52.710;6.502;2023-09-12T05:39:47;107.18;;;46.17;;
52554;SDS011;38455;52.710;6.502;2023-09-12T05:42:13;110.55;;;46.03;;
52554;SDS011;38455;52.710;6.502;2023-09-12T05:44:40;141.43;;;48.08;;
52554;SDS011;38455;52.710;6.502;2023-09-12T05:47:07;68.90;;;41.08;;
52554;SDS011;38455;52.710;6.502;2023-09-12T05:49:33;87.40;;;42.58;;
52554;SDS011;38455;52.710;6.502;2023-09-12T05:51:59;81.70;;;42.67;;
52554;SDS011;38455;52.710;6.502;2023-09-12T05:54:25;72.50;;;42.25;;
52554;SDS011;38455;52.710;6.502;2023-09-12T05:56:51;125.88;;;46.55;;
52554;SDS011;38455;52.710;6.502;2023-09-12T05:59:18;66.43;;;38.15;;
52554;SDS011;38455;52.710;6.502;2023-09-12T06:01:44;71.32;;;41.25;;
52554;SDS011;38455;52.710;6.502;2023-09-12T06:04:10;70.25;;;39.63;;
52554;SDS011;38455;52.710;6.502;2023-09-12T06:06:36;75.47;;;40.80;;
52554;SDS011;38455;52.710;6.502;2023-09-12T06:09:01;74.45;;;40.22;;
52554;SDS011;38455;52.710;6.502;2023-09-12T06:11:28;92.47;;;43.53;;
52554;SDS011;38455;52.710;6.502;2023-09-12T06:13:54;67.78;;;37.75;;
52554;SDS011;38455;52.710;6.502;2023-09-12T06:16:21;129.77;;;44.10;;
52554;SDS011;38455;52.710;6.502;2023-09-12T06:18:47;69.30;;;38.85;;
52554;SDS011;38455;52.710;6.502;2023-09-12T06:21:13;67.60;;;40.70;;
52554;SDS011;38455;52.710;6.502;2023-09-12T06:23:39;69.75;;;40.20;;
52554;SDS011;38455;52.710;6.502;2023-09-12T06:26:05;71.43;;;42.55;;
52554;SDS011;38455;52.710;6.502;2023-09-12T06:28:31;66.13;;;40.42;;
52554;SDS011;38455;52.710;6.502;2023-09-12T06:30:57;66.78;;;39.60;;
52554;SDS011;38455;52.710;6.502;2023-09-12T06:33:24;73.43;;;41.13;;
52554;SDS011;38455;52.710;6.502;2023-09-12T06:35:51;79.13;;;44.22;;
52554;SDS011;38455;52.710;6.502;2023-09-12T06:38:21;90.22;;;47.63;;
52554;SDS011;38455;52.710;6.502;2023-09-12T06:40:47;72.00;;;41.40;;
52554;SDS011;38455;52.710;6.502;2023-09-12T06:43:13;66.97;;;39.92;;
52554;SDS011;38455;52.710;6.502;2023-09-12T06:45:42;79.38;;;43.25;;
52554;SDS011;38455;52.710;6.502;2023-09-12T06:48:09;91.93;;;47.45;;
52554;SDS011;38455;52.710;6.502;2023-09-12T06:50:35;63.40;;;40.35;;
52554;SDS011;38455;52.710;6.502;2023-09-12T06:53:03;62.08;;;38.78;;
52554;SDS011;38455;52.710;6.502;2023-09-12T06:55:30;57.20;;;36.78;;
52554;SDS011;38455;52.710;6.502;2023-09-12T06:57:56;59.05;;;36.53;;
52554;SDS011;38455;52.710;6.502;2023-09-12T07:00:22;59.42;;;36.58;;
52554;SDS011;38455;52.710;6.502;2023-09-12T07:02:47;57.03;;;36.63;;
52554;SDS011;38455;52.710;6.502;2023-09-12T07:05:13;55.50;;;35.90;;
52554;SDS011;38455;52.710;6.502;2023-09-12T07:07:39;55.42;;;36.58;;
52554;SDS011;38455;52.710;6.502;2023-09-12T07:10:04;52.92;;;34.28;;
52554;SDS011;38455;52.710;6.502;2023-09-12T07:12:31;59.33;;;37.33;;
52554;SDS011;38455;52.710;6.502;2023-09-12T07:14:58;58.05;;;36.78;;
52554;SDS011;38455;52.710;6.502;2023-09-12T07:17:23;59.28;;;36.08;;
52554;SDS011;38455;52.710;6.502;2023-09-12T07:19:49;51.65;;;33.05;;
52554;SDS011;38455;52.710;6.502;2023-09-12T07:22:16;55.40;;;34.80;;
52554;SDS011;38455;52.710;6.502;2023-09-12T07:24:41;57.03;;;35.50;;
52554;SDS011;38455;52.710;6.502;2023-09-12T07:27:07;59.10;;;37.67;;
52554;SDS011;38455;52.710;6.502;2023-09-12T07:29:34;48.30;;;33.70;;
52554;SDS011;38455;52.710;6.502;2023-09-12T07:32:00;54.40;;;35.17;;
52554;SDS011;38455;52.710;6.502;2023-09-12T07:34:25;54.33;;;35.15;;
52554;SDS011;38455;52.710;6.502;2023-09-12T07:36:51;53.88;;;36.35;;
52554;SDS011;38455;52.710;6.502;2023-09-12T07:39:18;59.17;;;39.42;;
52554;SDS011;38455;52.710;6.502;2023-09-12T07:41:44;66.93;;;38.53;;
52554;SDS011;38455;52.710;6.502;2023-09-12T07:44:11;59.70;;;36.90;;
52554;SDS011;38455;52.710;6.502;2023-09-12T07:46:39;52.97;;;34.75;;
52554;SDS011;38455;52.710;6.502;2023-09-12T07:49:05;54.50;;;34.17;;
52554;SDS011;38455;52.710;6.502;2023-09-12T07:51:34;56.17;;;35.80;;
52554;SDS011;38455;52.710;6.502;2023-09-12T07:54:00;52.15;;;35.70;;
52554;SDS011;38455;52.710;6.502;2023-09-12T07:56:26;55.67;;;35.50;;
52554;SDS011;38455;52.710;6.502;2023-09-12T07:58:52;55.83;;;36.45;;
52554;SDS011;38455;52.710;6.502;2023-09-12T08:01:18;55.53;;;35.90;;
52554;SDS011;38455;52.710;6.502;2023-09-12T08:03:44;51.53;;;34.55;;
52554;SDS011;38455;52.710;6.502;2023-09-12T08:06:09;53.80;;;35.38;;
52554;SDS011;38455;52.710;6.502;2023-09-12T08:08:35;58.03;;;38.33;;
52554;SDS011;38455;52.710;6.502;2023-09-12T08:11:01;56.10;;;38.42;;
52554;SDS011;38455;52.710;6.502;2023-09-12T08:13:27;53.33;;;35.47;;
52554;SDS011;38455;52.710;6.502;2023-09-12T08:15:54;49.75;;;33.55;;
52554;SDS011;38455;52.710;6.502;2023-09-12T08:18:20;47.63;;;33.85;;
52554;SDS011;38455;52.710;6.502;2023-09-12T08:20:46;54.53;;;33.38;;
52554;SDS011;38455;52.710;6.502;2023-09-12T08:23:12;54.42;;;35.03;;
52554;SDS011;38455;52.710;6.502;2023-09-12T08:25:39;52.88;;;34.47;;
52554;SDS011;38455;52.710;6.502;2023-09-12T08:28:04;48.92;;;31.17;;
52554;SDS011;38455;52.710;6.502;2023-09-12T08:30:30;41.70;;;30.05;;
52554;SDS011;38455;52.710;6.502;2023-09-12T08:32:56;50.33;;;34.40;;
52554;SDS011;38455;52.710;6.502;2023-09-12T08:35:22;47.97;;;31.98;;
52554;SDS011;38455;52.710;6.502;2023-09-12T08:37:47;50.10;;;34.67;;
52554;SDS011;38455;52.710;6.502;2023-09-12T08:40:13;47.17;;;33.67;;
52554;SDS011;38455;52.710;6.502;2023-09-12T08:42:40;46.95;;;32.95;;
52554;SDS011;38455;52.710;6.502;2023-09-12T08:45:17;50.75;;;33.00;;
52554;SDS011;38455;52.710;6.502;2023-09-12T08:47:46;46.40;;;33.00;;
52554;SDS011;38455;52.710;6.502;2023-09-12T08:50:15;46.30;;;32.20;;
52554;SDS011;38455;52.710;6.502;2023-09-12T08:52:42;46.25;;;32.17;;
52554;SDS011;38455;52.710;6.502;2023-09-12T08:55:08;52.22;;;33.67;;
52554;SDS011;38455;52.710;6.502;2023-09-12T08:57:35;48.55;;;34.40;;
52554;SDS011;38455;52.710;6.502;2023-09-12T09:00:03;41.55;;;31.30;;
52554;SDS011;38455;52.710;6.502;2023-09-12T09:02:40;42.95;;;31.00;;
52554;SDS011;38455;52.710;6.502;2023-09-12T09:05:07;43.70;;;30.33;;
52554;SDS011;38455;52.710;6.502;2023-09-12T09:07:36;41.78;;;30.83;;
52554;SDS011;38455;52.710;6.502;2023-09-12T09:10:04;44.15;;;33.15;;
52554;SDS011;38455;52.710;6.502;2023-09-12T09:12:31;41.92;;;32.50;;
52554;SDS011;38455;52.710;6.502;2023-09-12T09:14:57;43.30;;;30.60;;
52554;SDS011;38455;52.710;6.502;2023-09-12T09:17:23;44.55;;;31.65;;
52554;SDS011;38455;52.710;6.502;2023-09-12T09:19:49;39.25;;;29.67;;
52554;SDS011;38455;52.710;6.502;2023-09-12T09:22:15;39.38;;;29.10;;
52554;SDS011;38455;52.710;6.502;2023-09-12T09:24:41;37.58;;;28.33;;
52554;SDS011;38455;52.710;6.502;2023-09-12T09:27:06;37.00;;;29.95;;
52554;SDS011;38455;52.710;6.502;2023-09-12T09:29:32;30.80;;;25.05;;
52554;SDS011;38455;52.710;6.502;2023-09-12T09:32:17;29.90;;;24.77;;
52554;SDS011;38455;52.710;6.502;2023-09-12T09:34:44;33.83;;;26.45;;
52554;SDS011;38455;52.710;6.502;2023-09-12T09:37:09;34.55;;;25.45;;
52554;SDS011;38455;52.710;6.502;2023-09-12T09:39:35;31.67;;;25.83;;
52554;SDS011;38455;52.710;6.502;2023-09-12T09:42:01;35.75;;;28.52;;
52554;SDS011;38455;52.710;6.502;2023-09-12T09:44:28;35.95;;;28.15;;
52554;SDS011;38455;52.710;6.502;2023-09-12T09:46:59;30.65;;;25.38;;
52554;SDS011;38455;52.710;6.502;2023-09-12T09:49:27;31.60;;;27.52;;
52554;SDS011;38455;52.710;6.502;2023-09-12T09:51:55;32.90;;;27.90;;
52554;SDS011;38455;52.710;6.502;2023-09-12T09:54:23;33.50;;;27.92;;
52554;SDS011;38455;52.710;6.502;2023-09-12T09:56:54;33.08;;;26.50;;
52554;SDS011;38455;52.710;6.502;2023-09-12T09:59:21;29.73;;;24.88;;
52554;SDS011;38455;52.710;6.502;2023-09-12T10:01:49;26.58;;;23.58;;
52554;SDS011;38455;52.710;6.502;2023-09-12T10:04:16;31.33;;;25.42;;
52554;SDS011;38455;52.710;6.502;2023-09-12T10:06:43;28.83;;;23.33;;
52554;SDS011;38455;52.710;6.502;2023-09-12T10:09:11;27.67;;;22.48;;
52554;SDS011;38455;52.710;6.502;2023-09-12T10:11:41;26.92;;;23.33;;
52554;SDS011;38455;52.710;6.502;2023-09-12T10:14:08;30.38;;;25.13;;
52554;SDS011;38455;52.710;6.502;2023-09-12T10:16:35;24.75;;;21.30;;
52554;SDS011;38455;52.710;6.502;2023-09-12T10:22:03;24.70;;;20.55;;
52554;SDS011;38455;52.710;6.502;2023-09-12T10:24:32;28.02;;;21.05;;
52554;SDS011;38455;52.710;6.502;2023-09-12T10:27:00;21.20;;;18.63;;
52554;SDS011;38455;52.710;6.502;2023-09-12T10:29:27;20.40;;;17.80;;
52554;SDS011;38455;52.710;6.502;2023-09-12T10:31:53;28.15;;;21.42;;
52554;SDS011;38455;52.710;6.502;2023-09-12T10:34:19;23.27;;;20.75;;
52554;SDS011;38455;52.710;6.502;2023-09-12T10:36:47;19.85;;;16.60;;
52554;SDS011;38455;52.710;6.502;2023-09-12T10:39:14;16.67;;;14.90;;
52554;SDS011;38455;52.710;6.502;2023-09-12T10:41:40;18.38;;;16.40;;
52554;SDS011;38455;52.710;6.502;2023-09-12T10:44:10;19.20;;;17.25;;
52554;SDS011;38455;52.710;6.502;2023-09-12T10:46:40;18.95;;;16.77;;
52554;SDS011;38455;52.710;6.502;2023-09-12T10:49:07;18.90;;;16.90;;
52554;SDS011;38455;52.710;6.502;2023-09-12T10:51:40;19.38;;;15.95;;
52554;SDS011;38455;52.710;6.502;2023-09-12T10:54:07;19.75;;;16.80;;
52554;SDS011;38455;52.710;6.502;2023-09-12T10:56:33;19.70;;;17.65;;
52554;SDS011;38455;52.710;6.502;2023-09-12T11:01:44;17.02;;;15.30;;
52554;SDS011;38455;52.710;6.502;2023-09-12T11:06:50;19.27;;;15.32;;
52554;SDS011;38455;52.710;6.502;2023-09-12T11:09:25;16.70;;;14.93;;
52554;SDS011;38455;52.710;6.502;2023-09-12T11:14:24;15.70;;;13.77;;
52554;SDS011;38455;52.710;6.502;2023-09-12T11:19:45;18.15;;;16.02;;
52554;SDS011;38455;52.710;6.502;2023-09-12T11:24:50;17.35;;;15.55;;
52554;SDS011;38455;52.710;6.502;2023-09-12T11:27:17;17.27;;;14.10;;
52554;SDS011;38455;52.710;6.502;2023-09-12T11:29:42;19.63;;;15.30;;
52554;SDS011;38455;52.710;6.502;2023-09-12T11:32:08;20.25;;;15.43;;
52554;SDS011;38455;52.710;6.502;2023-09-12T11:34:41;19.02;;;13.55;;
52554;SDS011;38455;52.710;6.502;2023-09-12T11:37:08;17.20;;;14.32;;
52554;SDS011;38455;52.710;6.502;2023-09-12T11:39:36;15.88;;;12.82;;
52554;SDS011;38455;52.710;6.502;2023-09-12T11:42:04;16.50;;;13.40;;
52554;SDS011;38455;52.710;6.502;2023-09-12T11:44:33;16.02;;;14.43;;
52554;SDS011;38455;52.710;6.502;2023-09-12T11:47:00;14.45;;;11.82;;
52554;SDS011;38455;52.710;6.502;2023-09-12T11:49:40;17.25;;;11.93;;
52554;SDS011;38455;52.710;6.502;2023-09-12T11:54:37;16.33;;;12.65;;
52554;SDS011;38455;52.710;6.502;2023-09-12T11:57:03;13.75;;;11.68;;
52554;SDS011;38455;52.710;6.502;2023-09-12T11:59:29;13.80;;;12.30;;
52554;SDS011;38455;52.710;6.502;2023-09-12T12:01:55;17.13;;;13.27;;
52554;SDS011;38455;52.710;6.502;2023-09-12T12:04:21;12.07;;;10.82;;
52554;SDS011;38455;52.710;6.502;2023-09-12T12:06:49;15.68;;;12.55;;
52554;SDS011;38455;52.710;6.502;2023-09-12T12:09:16;18.55;;;12.60;;
52554;SDS011;38455;52.710;6.502;2023-09-12T12:11:46;12.77;;;11.45;;
52554;SDS011;38455;52.710;6.502;2023-09-12T12:14:13;12.52;;;11.32;;
52554;SDS011;38455;52.710;6.502;2023-09-12T12:16:44;15.32;;;11.23;;
52554;SDS011;38455;52.710;6.502;2023-09-12T12:19:11;16.27;;;11.07;;
52554;SDS011;38455;52.710;6.502;2023-09-12T12:21:38;11.77;;;10.00;;
52554;SDS011;38455;52.710;6.502;2023-09-12T12:24:11;11.57;;;10.00;;
52554;SDS011;38455;52.710;6.502;2023-09-12T12:26:45;12.55;;;11.00;;
52554;SDS011;38455;52.710;6.502;2023-09-12T12:29:11;13.45;;;11.15;;
52554;SDS011;38455;52.710;6.502;2023-09-12T12:31:38;12.63;;;11.10;;
52554;SDS011;38455;52.710;6.502;2023-09-12T12:34:04;12.48;;;10.90;;
52554;SDS011;38455;52.710;6.502;2023-09-12T12:36:31;14.93;;;11.27;;
52554;SDS011;38455;52.710;6.502;2023-09-12T12:38:59;12.40;;;10.20;;
52554;SDS011;38455;52.710;6.502;2023-09-12T12:41:26;16.00;;;11.07;;
52554;SDS011;38455;52.710;6.502;2023-09-12T12:43:55;10.50;;;9.20;;
52554;SDS011;38455;52.710;6.502;2023-09-12T12:46:26;11.90;;;9.73;;
52554;SDS011;38455;52.710;6.502;2023-09-12T12:48:52;12.50;;;9.52;;
52554;SDS011;38455;52.710;6.502;2023-09-12T12:51:18;14.02;;;9.27;;
52554;SDS011;38455;52.710;6.502;2023-09-12T12:53:48;10.48;;;8.57;;
52554;SDS011;38455;52.710;6.502;2023-09-12T12:56:19;10.23;;;7.68;;
52554;SDS011;38455;52.710;6.502;2023-09-12T12:58:50;10.80;;;7.70;;
52554;SDS011;38455;52.710;6.502;2023-09-12T13:01:23;10.27;;;8.63;;
52554;SDS011;38455;52.710;6.502;2023-09-12T13:03:50;10.90;;;8.20;;
52554;SDS011;38455;52.710;6.502;2023-09-12T13:06:16;14.63;;;10.02;;
52554;SDS011;38455;52.710;6.502;2023-09-12T13:08:43;11.30;;;6.35;;
52554;SDS011;38455;52.710;6.502;2023-09-12T13:11:10;11.23;;;7.25;;
52554;SDS011;38455;52.710;6.502;2023-09-12T13:13:37;12.30;;;7.57;;
52554;SDS011;38455;52.710;6.502;2023-09-12T13:16:08;9.00;;;6.28;;
52554;SDS011;38455;52.710;6.502;2023-09-12T13:18:38;9.10;;;6.50;;
52554;SDS011;38455;52.710;6.502;2023-09-12T13:21:04;11.27;;;6.05;;
52554;SDS011;38455;52.710;6.502;2023-09-12T13:23:30;8.85;;;6.13;;
52554;SDS011;38455;52.710;6.502;2023-09-12T13:25:58;12.05;;;6.20;;
52554;SDS011;38455;52.710;6.502;2023-09-12T13:28:24;8.82;;;5.78;;
52554;SDS011;38455;52.710;6.502;2023-09-12T13:30:52;8.60;;;6.13;;
52554;SDS011;38455;52.710;6.502;2023-09-12T13:33:18;8.63;;;6.20;;
52554;SDS011;38455;52.710;6.502;2023-09-12T13:35:44;11.07;;;5.95;;
52554;SDS011;38455;52.710;6.502;2023-09-12T13:38:11;9.15;;;5.30;;
52554;SDS011;38455;52.710;6.502;2023-09-12T13:40:37;11.63;;;5.32;;
52554;SDS011;38455;52.710;6.502;2023-09-12T13:43:06;9.73;;;5.70;;
52554;SDS011;38455;52.710;6.502;2023-09-12T13:45:32;10.60;;;5.88;;
52554;SDS011;38455;52.710;6.502;2023-09-12T13:47:59;8.15;;;5.85;;
52554;SDS011;38455;52.710;6.502;2023-09-12T13:50:28;8.15;;;5.63;;
52554;SDS011;38455;52.710;6.502;2023-09-12T13:52:55;7.65;;;5.60;;
52554;SDS011;38455;52.710;6.502;2023-09-12T13:55:22;7.63;;;4.80;;
52554;SDS011;38455;52.710;6.502;2023-09-12T13:57:48;10.00;;;6.18;;
52554;SDS011;38455;52.710;6.502;2023-09-12T14:00:14;8.95;;;6.28;;
52554;SDS011;38455;52.710;6.502;2023-09-12T14:02:40;10.15;;;5.97;;
52554;SDS011;38455;52.710;6.502;2023-09-12T14:05:05;9.77;;;5.20;;
52554;SDS011;38455;52.710;6.502;2023-09-12T14:07:31;6.85;;;4.90;;
52554;SDS011;38455;52.710;6.502;2023-09-12T14:09:57;10.15;;;5.20;;
52554;SDS011;38455;52.710;6.502;2023-09-12T14:12:23;7.38;;;4.10;;
52554;SDS011;38455;52.710;6.502;2023-09-12T14:14:50;7.45;;;4.47;;
52554;SDS011;38455;52.710;6.502;2023-09-12T14:17:16;8.90;;;6.07;;
52554;SDS011;38455;52.710;6.502;2023-09-12T14:19:43;8.73;;;5.57;;
52554;SDS011;38455;52.710;6.502;2023-09-12T14:22:08;7.75;;;5.38;;
52554;SDS011;38455;52.710;6.502;2023-09-12T14:24:34;10.48;;;6.80;;
52554;SDS011;38455;52.710;6.502;2023-09-12T14:27:00;11.57;;;6.95;;
52554;SDS011;38455;52.710;6.502;2023-09-12T14:29:25;9.45;;;7.25;;
52554;SDS011;38455;52.710;6.502;2023-09-12T14:31:54;11.48;;;6.25;;
52554;SDS011;38455;52.710;6.502;2023-09-12T14:34:26;10.80;;;7.22;;
52554;SDS011;38455;52.710;6.502;2023-09-12T14:36:55;10.88;;;6.65;;
52554;SDS011;38455;52.710;6.502;2023-09-12T14:39:22;9.50;;;5.65;;
52554;SDS011;38455;52.710;6.502;2023-09-12T14:41:48;7.97;;;4.97;;
52554;SDS011;38455;52.710;6.502;2023-09-12T14:44:20;10.85;;;4.65;;